sensor_id;sensor_type;location;lat;lon;timestamp;P1;durP1;ratioP1;P2;durP2;ratioP2
2021;SDS011;1015;49.756;6.994;2022-12-07T00:01:25;16.57;;;10.83;;
2021;SDS011;1015;49.756;6.994;2022-12-07T00:03:55;15.97;;;10.07;;
2021;SDS011;1015;49.756;6.994;2022-12-07T00:06:29;15.60;;;10.07;;
2021;SDS011;1015;49.756;6.994;2022-12-07T00:08:57;20.63;;;11.20;;
2021;SDS011;1015;49.756;6.994;2022-12-07T00:11:24;19.10;;;10.67;;
2021;SDS011;1015;49.756;6.994;2022-12-07T00:13:52;19.80;;;11.03;;
2021;SDS011;1015;49.756;6.994;2022-12-07T00:16:20;20.43;;;10.80;;
2021;SDS011;1015;49.756;6.994;2022-12-07T00:18:49;21.07;;;11.47;;
2021;SDS011;1015;49.756;6.994;2022-12-07T00:21:18;20.13;;;11.20;;
2021;SDS011;1015;49.756;6.994;2022-12-07T00:23:47;18.20;;;11.00;;
2021;SDS011;1015;49.756;6.994;2022-12-07T00:26:16;17.40;;;10.90;;
2021;SDS011;1015;49.756;6.994;2022-12-07T00:28:45;17.73;;;9.90;;
2021;SDS011;1015;49.756;6.994;2022-12-07T00:31:13;22.30;;;11.10;;
2021;SDS011;1015;49.756;6.994;2022-12-07T00:33:41;20.93;;;12.50;;
2021;SDS011;1015;49.756;6.994;2022-12-07T00:36:09;30.37;;;16.20;;
2021;SDS011;1015;49.756;6.994;2022-12-07T00:38:39;24.87;;;15.90;;
2021;SDS011;1015;49.756;6.994;2022-12-07T00:41:07;22.80;;;13.30;;
2021;SDS011;1015;49.756;6.994;2022-12-07T00:43:36;20.10;;;12.77;;
2021;SDS011;1015;49.756;6.994;2022-12-07T00:46:03;19.60;;;11.60;;
2021;SDS011;1015;49.756;6.994;2022-12-07T00:48:30;22.30;;;12.30;;
2021;SDS011;1015;49.756;6.994;2022-12-07T00:50:57;18.80;;;11.33;;
2021;SDS011;1015;49.756;6.994;2022-12-07T00:53:25;16.90;;;11.00;;
2021;SDS011;1015;49.756;6.994;2022-12-07T00:55:54;22.70;;;12.73;;
2021;SDS011;1015;49.756;6.994;2022-12-07T00:58:21;21.80;;;11.70;;
2021;SDS011;1015;49.756;6.994;2022-12-07T01:00:48;23.17;;;11.97;;
2021;SDS011;1015;49.756;6.994;2022-12-07T01:03:16;18.33;;;10.20;;
2021;SDS011;1015;49.756;6.994;2022-12-07T01:05:48;18.50;;;10.60;;
2021;SDS011;1015;49.756;6.994;2022-12-07T01:08:16;17.90;;;10.40;;
2021;SDS011;1015;49.756;6.994;2022-12-07T01:10:44;18.37;;;10.77;;
2021;SDS011;1015;49.756;6.994;2022-12-07T01:13:12;16.23;;;9.40;;
2021;SDS011;1015;49.756;6.994;2022-12-07T01:15:39;18.10;;;10.87;;
2021;SDS011;1015;49.756;6.994;2022-12-07T01:18:06;18.73;;;10.30;;
2021;SDS011;1015;49.756;6.994;2022-12-07T01:20:33;17.80;;;10.27;;
2021;SDS011;1015;49.756;6.994;2022-12-07T01:23:00;18.47;;;10.50;;
2021;SDS011;1015;49.756;6.994;2022-12-07T01:25:27;23.07;;;11.10;;
2021;SDS011;1015;49.756;6.994;2022-12-07T01:27:55;18.60;;;10.87;;
2021;SDS011;1015;49.756;6.994;2022-12-07T01:30:23;20.70;;;10.83;;
2021;SDS011;1015;49.756;6.994;2022-12-07T01:32:50;17.43;;;9.03;;
2021;SDS011;1015;49.756;6.994;2022-12-07T01:35:17;19.83;;;10.40;;
2021;SDS011;1015;49.756;6.994;2022-12-07T01:37:44;16.03;;;10.40;;
2021;SDS011;1015;49.756;6.994;2022-12-07T01:40:11;20.10;;;11.47;;
2021;SDS011;1015;49.756;6.994;2022-12-07T01:42:38;16.77;;;9.77;;
2021;SDS011;1015;49.756;6.994;2022-12-07T01:48:09;17.43;;;10.43;;
2021;SDS011;1015;49.756;6.994;2022-12-07T01:50:40;19.97;;;10.43;;
2021;SDS011;1015;49.756;6.994;2022-12-07T01:53:09;19.77;;;11.00;;
2021;SDS011;1015;49.756;6.994;2022-12-07T01:55:37;17.90;;;10.00;;
2021;SDS011;1015;49.756;6.994;2022-12-07T01:58:07;18.80;;;10.67;;
2021;SDS011;1015;49.756;6.994;2022-12-07T02:00:37;20.27;;;10.47;;
2021;SDS011;1015;49.756;6.994;2022-12-07T02:03:05;17.53;;;10.17;;
2021;SDS011;1015;49.756;6.994;2022-12-07T02:05:37;17.33;;;10.33;;
2021;SDS011;1015;49.756;6.994;2022-12-07T02:08:07;17.40;;;10.70;;
2021;SDS011;1015;49.756;6.994;2022-12-07T02:10:35;20.03;;;10.80;;
2021;SDS011;1015;49.756;6.994;2022-12-07T02:13:03;19.43;;;11.20;;
2021;SDS011;1015;49.756;6.994;2022-12-07T02:15:35;18.23;;;10.50;;
2021;SDS011;1015;49.756;6.994;2022-12-07T02:18:09;17.77;;;10.30;;
2021;SDS011;1015;49.756;6.994;2022-12-07T02:20:45;20.57;;;11.80;;
2021;SDS011;1015;49.756;6.994;2022-12-07T02:29:19;18.80;;;11.40;;
2021;SDS011;1015;49.756;6.994;2022-12-07T02:31:51;23.87;;;12.43;;
2021;SDS011;1015;49.756;6.994;2022-12-07T02:34:29;21.07;;;12.13;;
2021;SDS011;1015;49.756;6.994;2022-12-07T02:37:02;20.60;;;12.77;;
2021;SDS011;1015;49.756;6.994;2022-12-07T02:39:37;24.13;;;12.40;;
2021;SDS011;1015;49.756;6.994;2022-12-07T02:42:12;26.87;;;12.93;;
2021;SDS011;1015;49.756;6.994;2022-12-07T02:44:43;26.67;;;13.27;;
2021;SDS011;1015;49.756;6.994;2022-12-07T02:47:12;26.97;;;14.00;;
2021;SDS011;1015;49.756;6.994;2022-12-07T02:49:42;24.83;;;14.20;;
2021;SDS011;1015;49.756;6.994;2022-12-07T02:52:09;26.47;;;13.40;;
2021;SDS011;1015;49.756;6.994;2022-12-07T02:54:36;33.37;;;15.50;;
2021;SDS011;1015;49.756;6.994;2022-12-07T02:57:07;29.00;;;14.67;;
2021;SDS011;1015;49.756;6.994;2022-12-07T02:59:54;25.57;;;14.40;;
2021;SDS011;1015;49.756;6.994;2022-12-07T03:02:29;29.20;;;15.97;;
2021;SDS011;1015;49.756;6.994;2022-12-07T03:05:11;30.80;;;16.00;;
2021;SDS011;1015;49.756;6.994;2022-12-07T03:07:48;36.20;;;17.57;;
2021;SDS011;1015;49.756;6.994;2022-12-07T03:10:22;34.23;;;15.40;;
2021;SDS011;1015;49.756;6.994;2022-12-07T03:12:57;34.07;;;16.87;;
2021;SDS011;1015;49.756;6.994;2022-12-07T03:15:33;37.20;;;16.90;;
2021;SDS011;1015;49.756;6.994;2022-12-07T03:18:05;36.53;;;16.70;;
2021;SDS011;1015;49.756;6.994;2022-12-07T03:20:35;32.43;;;15.60;;
2021;SDS011;1015;49.756;6.994;2022-12-07T03:23:05;37.20;;;16.00;;
2021;SDS011;1015;49.756;6.994;2022-12-07T03:25:35;30.27;;;15.93;;
2021;SDS011;1015;49.756;6.994;2022-12-07T03:28:07;28.97;;;14.50;;
2021;SDS011;1015;49.756;6.994;2022-12-07T03:30:39;31.33;;;16.27;;
2021;SDS011;1015;49.756;6.994;2022-12-07T03:33:11;27.93;;;14.70;;
2021;SDS011;1015;49.756;6.994;2022-12-07T03:35:42;30.27;;;15.47;;
2021;SDS011;1015;49.756;6.994;2022-12-07T03:38:14;30.37;;;15.37;;
2021;SDS011;1015;49.756;6.994;2022-12-07T03:40:47;25.47;;;14.40;;
2021;SDS011;1015;49.756;6.994;2022-12-07T03:43:19;31.80;;;14.60;;
2021;SDS011;1015;49.756;6.994;2022-12-07T03:45:50;32.20;;;14.60;;
2021;SDS011;1015;49.756;6.994;2022-12-07T03:48:28;27.17;;;14.37;;
2021;SDS011;1015;49.756;6.994;2022-12-07T03:51:03;26.40;;;13.47;;
2021;SDS011;1015;49.756;6.994;2022-12-07T03:53:36;30.57;;;13.50;;
2021;SDS011;1015;49.756;6.994;2022-12-07T03:56:07;29.07;;;15.27;;
2021;SDS011;1015;49.756;6.994;2022-12-07T03:58:36;36.30;;;15.47;;
2021;SDS011;1015;49.756;6.994;2022-12-07T04:01:05;27.37;;;15.00;;
2021;SDS011;1015;49.756;6.994;2022-12-07T04:03:32;29.77;;;14.60;;
2021;SDS011;1015;49.756;6.994;2022-12-07T04:05:59;28.90;;;15.33;;
2021;SDS011;1015;49.756;6.994;2022-12-07T04:08:27;28.00;;;15.40;;
2021;SDS011;1015;49.756;6.994;2022-12-07T04:10:54;30.87;;;15.27;;
2021;SDS011;1015;49.756;6.994;2022-12-07T04:13:21;25.27;;;13.53;;
2021;SDS011;1015;49.756;6.994;2022-12-07T04:15:48;28.33;;;14.50;;
2021;SDS011;1015;49.756;6.994;2022-12-07T04:18:16;32.40;;;15.50;;
2021;SDS011;1015;49.756;6.994;2022-12-07T04:20:43;29.43;;;14.60;;
2021;SDS011;1015;49.756;6.994;2022-12-07T04:23:11;32.60;;;14.57;;
2021;SDS011;1015;49.756;6.994;2022-12-07T04:25:38;27.40;;;13.57;;
2021;SDS011;1015;49.756;6.994;2022-12-07T04:28:06;27.63;;;14.20;;
2021;SDS011;1015;49.756;6.994;2022-12-07T04:30:33;27.40;;;14.67;;
2021;SDS011;1015;49.756;6.994;2022-12-07T04:33:00;29.07;;;15.40;;
2021;SDS011;1015;49.756;6.994;2022-12-07T04:35:28;24.83;;;13.30;;
2021;SDS011;1015;49.756;6.994;2022-12-07T04:37:55;27.70;;;13.90;;
2021;SDS011;1015;49.756;6.994;2022-12-07T04:40:22;24.30;;;13.50;;
2021;SDS011;1015;49.756;6.994;2022-12-07T04:42:49;33.00;;;14.37;;
2021;SDS011;1015;49.756;6.994;2022-12-07T04:45:16;23.37;;;13.23;;
2021;SDS011;1015;49.756;6.994;2022-12-07T04:47:43;26.33;;;13.30;;
2021;SDS011;1015;49.756;6.994;2022-12-07T04:50:10;25.50;;;13.10;;
2021;SDS011;1015;49.756;6.994;2022-12-07T04:52:38;25.70;;;13.90;;
2021;SDS011;1015;49.756;6.994;2022-12-07T04:55:06;25.27;;;13.43;;
2021;SDS011;1015;49.756;6.994;2022-12-07T04:57:34;23.27;;;13.23;;
2021;SDS011;1015;49.756;6.994;2022-12-07T05:00:01;26.30;;;12.80;;
2021;SDS011;1015;49.756;6.994;2022-12-07T05:02:28;28.63;;;13.67;;
2021;SDS011;1015;49.756;6.994;2022-12-07T05:04:55;21.50;;;12.00;;
2021;SDS011;1015;49.756;6.994;2022-12-07T05:07:22;25.30;;;13.77;;
2021;SDS011;1015;49.756;6.994;2022-12-07T05:09:50;23.40;;;12.50;;
2021;SDS011;1015;49.756;6.994;2022-12-07T05:12:18;23.50;;;12.17;;
2021;SDS011;1015;49.756;6.994;2022-12-07T05:14:45;25.77;;;12.53;;
2021;SDS011;1015;49.756;6.994;2022-12-07T05:17:12;21.77;;;11.70;;
2021;SDS011;1015;49.756;6.994;2022-12-07T05:19:39;25.20;;;12.93;;
2021;SDS011;1015;49.756;6.994;2022-12-07T05:22:06;28.27;;;13.70;;
2021;SDS011;1015;49.756;6.994;2022-12-07T05:24:33;30.93;;;14.60;;
2021;SDS011;1015;49.756;6.994;2022-12-07T05:27:02;24.33;;;13.37;;
2021;SDS011;1015;49.756;6.994;2022-12-07T05:29:29;25.60;;;13.47;;
2021;SDS011;1015;49.756;6.994;2022-12-07T05:31:56;25.97;;;14.10;;
2021;SDS011;1015;49.756;6.994;2022-12-07T05:34:24;25.83;;;13.23;;
2021;SDS011;1015;49.756;6.994;2022-12-07T05:36:51;26.90;;;13.57;;
2021;SDS011;1015;49.756;6.994;2022-12-07T05:39:18;22.50;;;12.63;;
2021;SDS011;1015;49.756;6.994;2022-12-07T05:41:45;29.20;;;12.90;;
2021;SDS011;1015;49.756;6.994;2022-12-07T05:44:31;26.43;;;12.90;;
2021;SDS011;1015;49.756;6.994;2022-12-07T05:46:58;24.77;;;13.33;;
2021;SDS011;1015;49.756;6.994;2022-12-07T05:49:25;25.70;;;13.67;;
2021;SDS011;1015;49.756;6.994;2022-12-07T05:51:52;29.57;;;13.47;;
2021;SDS011;1015;49.756;6.994;2022-12-07T05:54:19;27.23;;;13.50;;
2021;SDS011;1015;49.756;6.994;2022-12-07T05:56:47;30.93;;;14.23;;
2021;SDS011;1015;49.756;6.994;2022-12-07T05:59:14;28.17;;;14.67;;
2021;SDS011;1015;49.756;6.994;2022-12-07T06:01:51;25.37;;;13.73;;
2021;SDS011;1015;49.756;6.994;2022-12-07T06:04:19;27.40;;;14.87;;
2021;SDS011;1015;49.756;6.994;2022-12-07T06:06:47;29.33;;;14.20;;
2021;SDS011;1015;49.756;6.994;2022-12-07T06:09:14;29.50;;;15.20;;
2021;SDS011;1015;49.756;6.994;2022-12-07T06:11:43;26.57;;;14.23;;
2021;SDS011;1015;49.756;6.994;2022-12-07T06:14:28;27.30;;;14.17;;
2021;SDS011;1015;49.756;6.994;2022-12-07T06:16:57;26.67;;;14.73;;
2021;SDS011;1015;49.756;6.994;2022-12-07T06:19:25;26.50;;;15.17;;
2021;SDS011;1015;49.756;6.994;2022-12-07T06:21:52;33.40;;;15.40;;
2021;SDS011;1015;49.756;6.994;2022-12-07T06:24:21;29.73;;;15.33;;
2021;SDS011;1015;49.756;6.994;2022-12-07T06:26:49;29.60;;;14.03;;
2021;SDS011;1015;49.756;6.994;2022-12-07T06:29:16;35.23;;;15.13;;
2021;SDS011;1015;49.756;6.994;2022-12-07T06:31:44;38.23;;;14.87;;
2021;SDS011;1015;49.756;6.994;2022-12-07T06:34:13;31.20;;;14.30;;
2021;SDS011;1015;49.756;6.994;2022-12-07T06:36:42;24.50;;;14.00;;
2021;SDS011;1015;49.756;6.994;2022-12-07T06:39:09;32.10;;;14.87;;
2021;SDS011;1015;49.756;6.994;2022-12-07T06:41:39;32.17;;;15.50;;
2021;SDS011;1015;49.756;6.994;2022-12-07T06:44:06;28.43;;;13.43;;
2021;SDS011;1015;49.756;6.994;2022-12-07T06:46:34;32.57;;;15.03;;
2021;SDS011;1015;49.756;6.994;2022-12-07T06:49:01;29.13;;;13.60;;
2021;SDS011;1015;49.756;6.994;2022-12-07T06:51:30;30.87;;;15.00;;
2021;SDS011;1015;49.756;6.994;2022-12-07T06:54:00;27.03;;;14.23;;
2021;SDS011;1015;49.756;6.994;2022-12-07T06:56:27;30.73;;;14.20;;
2021;SDS011;1015;49.756;6.994;2022-12-07T06:58:54;28.60;;;15.23;;
2021;SDS011;1015;49.756;6.994;2022-12-07T07:01:21;31.07;;;14.47;;
2021;SDS011;1015;49.756;6.994;2022-12-07T07:03:48;25.93;;;13.77;;
2021;SDS011;1015;49.756;6.994;2022-12-07T07:06:16;31.63;;;15.37;;
2021;SDS011;1015;49.756;6.994;2022-12-07T07:08:44;27.90;;;14.43;;
2021;SDS011;1015;49.756;6.994;2022-12-07T07:11:11;25.10;;;14.27;;
2021;SDS011;1015;49.756;6.994;2022-12-07T07:13:38;28.20;;;14.37;;
2021;SDS011;1015;49.756;6.994;2022-12-07T07:16:06;28.93;;;15.07;;
2021;SDS011;1015;49.756;6.994;2022-12-07T07:18:33;29.13;;;14.97;;
2021;SDS011;1015;49.756;6.994;2022-12-07T07:21:01;25.07;;;13.77;;
2021;SDS011;1015;49.756;6.994;2022-12-07T07:23:28;30.60;;;14.10;;
2021;SDS011;1015;49.756;6.994;2022-12-07T07:25:56;28.90;;;14.43;;
2021;SDS011;1015;49.756;6.994;2022-12-07T07:28:23;29.70;;;14.53;;
2021;SDS011;1015;49.756;6.994;2022-12-07T07:30:51;27.67;;;14.10;;
2021;SDS011;1015;49.756;6.994;2022-12-07T07:33:18;27.77;;;14.07;;
2021;SDS011;1015;49.756;6.994;2022-12-07T07:35:45;28.47;;;14.13;;
2021;SDS011;1015;49.756;6.994;2022-12-07T07:38:12;21.73;;;13.00;;
2021;SDS011;1015;49.756;6.994;2022-12-07T07:40:39;25.73;;;13.10;;
2021;SDS011;1015;49.756;6.994;2022-12-07T07:43:07;27.97;;;14.00;;
2021;SDS011;1015;49.756;6.994;2022-12-07T07:45:34;29.47;;;13.77;;
2021;SDS011;1015;49.756;6.994;2022-12-07T07:48:02;29.20;;;13.77;;
2021;SDS011;1015;49.756;6.994;2022-12-07T07:50:29;26.53;;;13.40;;
2021;SDS011;1015;49.756;6.994;2022-12-07T07:52:56;24.27;;;13.20;;
2021;SDS011;1015;49.756;6.994;2022-12-07T07:55:23;24.30;;;12.50;;
2021;SDS011;1015;49.756;6.994;2022-12-07T07:57:50;25.37;;;13.23;;
2021;SDS011;1015;49.756;6.994;2022-12-07T08:00:19;26.40;;;12.97;;
2021;SDS011;1015;49.756;6.994;2022-12-07T08:02:46;33.30;;;15.60;;
2021;SDS011;1015;49.756;6.994;2022-12-07T08:05:13;33.80;;;14.77;;
2021;SDS011;1015;49.756;6.994;2022-12-07T08:07:40;33.33;;;15.03;;
2021;SDS011;1015;49.756;6.994;2022-12-07T08:10:09;33.90;;;17.10;;
2021;SDS011;1015;49.756;6.994;2022-12-07T08:12:38;29.00;;;15.00;;
2021;SDS011;1015;49.756;6.994;2022-12-07T08:15:28;29.87;;;15.03;;
2021;SDS011;1015;49.756;6.994;2022-12-07T08:17:57;27.93;;;14.30;;
2021;SDS011;1015;49.756;6.994;2022-12-07T08:20:24;28.93;;;14.13;;
2021;SDS011;1015;49.756;6.994;2022-12-07T08:22:51;27.00;;;13.97;;
2021;SDS011;1015;49.756;6.994;2022-12-07T08:25:18;25.40;;;13.93;;
2021;SDS011;1015;49.756;6.994;2022-12-07T08:27:45;27.77;;;14.07;;
2021;SDS011;1015;49.756;6.994;2022-12-07T08:30:13;28.07;;;14.13;;
2021;SDS011;1015;49.756;6.994;2022-12-07T08:32:41;28.53;;;12.93;;
2021;SDS011;1015;49.756;6.994;2022-12-07T08:35:10;27.50;;;14.23;;
2021;SDS011;1015;49.756;6.994;2022-12-07T08:37:37;27.07;;;13.20;;
2021;SDS011;1015;49.756;6.994;2022-12-07T08:40:05;26.77;;;14.40;;
2021;SDS011;1015;49.756;6.994;2022-12-07T08:42:33;24.17;;;13.37;;
2021;SDS011;1015;49.756;6.994;2022-12-07T08:45:05;26.60;;;13.80;;
2021;SDS011;1015;49.756;6.994;2022-12-07T08:47:33;26.47;;;14.00;;
2021;SDS011;1015;49.756;6.994;2022-12-07T08:50:04;25.60;;;14.13;;
2021;SDS011;1015;49.756;6.994;2022-12-07T08:52:34;26.43;;;14.03;;
2021;SDS011;1015;49.756;6.994;2022-12-07T08:55:02;25.30;;;12.50;;
2021;SDS011;1015;49.756;6.994;2022-12-07T08:57:31;23.90;;;11.90;;
2021;SDS011;1015;49.756;6.994;2022-12-07T09:00:00;24.03;;;12.33;;
2021;SDS011;1015;49.756;6.994;2022-12-07T09:02:28;19.83;;;11.73;;
2021;SDS011;1015;49.756;6.994;2022-12-07T09:04:57;22.57;;;11.93;;
2021;SDS011;1015;49.756;6.994;2022-12-07T09:07:25;21.53;;;13.07;;
2021;SDS011;1015;49.756;6.994;2022-12-07T09:09:53;18.53;;;11.10;;
2021;SDS011;1015;49.756;6.994;2022-12-07T09:12:21;19.47;;;11.40;;
2021;SDS011;1015;49.756;6.994;2022-12-07T09:14:48;21.23;;;11.27;;
2021;SDS011;1015;49.756;6.994;2022-12-07T09:17:15;16.27;;;10.77;;
2021;SDS011;1015;49.756;6.994;2022-12-07T09:19:42;16.73;;;10.87;;
2021;SDS011;1015;49.756;6.994;2022-12-07T09:22:09;19.37;;;10.93;;
2021;SDS011;1015;49.756;6.994;2022-12-07T09:24:37;18.20;;;10.27;;
2021;SDS011;1015;49.756;6.994;2022-12-07T09:27:04;17.63;;;11.40;;
2021;SDS011;1015;49.756;6.994;2022-12-07T09:29:31;16.17;;;10.30;;
2021;SDS011;1015;49.756;6.994;2022-12-07T09:31:58;19.57;;;11.40;;
2021;SDS011;1015;49.756;6.994;2022-12-07T09:34:25;17.80;;;10.43;;
2021;SDS011;1015;49.756;6.994;2022-12-07T09:36:52;18.90;;;10.10;;
2021;SDS011;1015;49.756;6.994;2022-12-07T09:39:19;17.67;;;9.73;;
2021;SDS011;1015;49.756;6.994;2022-12-07T09:41:48;17.50;;;9.90;;
2021;SDS011;1015;49.756;6.994;2022-12-07T09:44:17;18.03;;;10.50;;
2021;SDS011;1015;49.756;6.994;2022-12-07T09:46:49;15.97;;;9.93;;
2021;SDS011;1015;49.756;6.994;2022-12-07T09:49:19;17.83;;;10.83;;
2021;SDS011;1015;49.756;6.994;2022-12-07T09:51:47;16.20;;;10.40;;
2021;SDS011;1015;49.756;6.994;2022-12-07T09:54:25;19.00;;;9.73;;
2021;SDS011;1015;49.756;6.994;2022-12-07T09:56:53;15.63;;;9.27;;
2021;SDS011;1015;49.756;6.994;2022-12-07T09:59:20;14.40;;;8.87;;
2021;SDS011;1015;49.756;6.994;2022-12-07T10:01:48;14.37;;;8.70;;
2021;SDS011;1015;49.756;6.994;2022-12-07T10:04:16;18.80;;;9.47;;
2021;SDS011;1015;49.756;6.994;2022-12-07T10:06:46;14.63;;;9.20;;
2021;SDS011;1015;49.756;6.994;2022-12-07T10:09:16;15.87;;;8.90;;
2021;SDS011;1015;49.756;6.994;2022-12-07T10:12:13;15.03;;;9.03;;
2021;SDS011;1015;49.756;6.994;2022-12-07T10:14:52;14.83;;;8.80;;
2021;SDS011;1015;49.756;6.994;2022-12-07T10:17:32;13.73;;;8.30;;
2021;SDS011;1015;49.756;6.994;2022-12-07T10:20:15;16.67;;;9.80;;
2021;SDS011;1015;49.756;6.994;2022-12-07T10:22:55;18.33;;;10.57;;
2021;SDS011;1015;49.756;6.994;2022-12-07T10:25:25;15.13;;;9.43;;
2021;SDS011;1015;49.756;6.994;2022-12-07T10:27:59;15.93;;;9.30;;
2021;SDS011;1015;49.756;6.994;2022-12-07T10:30:27;13.23;;;8.70;;
2021;SDS011;1015;49.756;6.994;2022-12-07T10:32:55;11.93;;;7.93;;
2021;SDS011;1015;49.756;6.994;2022-12-07T10:35:24;14.10;;;8.00;;
2021;SDS011;1015;49.756;6.994;2022-12-07T10:37:53;14.13;;;8.53;;
2021;SDS011;1015;49.756;6.994;2022-12-07T10:40:24;12.30;;;6.40;;
2021;SDS011;1015;49.756;6.994;2022-12-07T10:43:05;10.23;;;6.73;;
2021;SDS011;1015;49.756;6.994;2022-12-07T10:45:42;10.50;;;6.70;;
2021;SDS011;1015;49.756;6.994;2022-12-07T10:48:39;12.80;;;7.87;;
2021;SDS011;1015;49.756;6.994;2022-12-07T10:51:14;11.90;;;8.07;;
2021;SDS011;1015;49.756;6.994;2022-12-07T10:53:52;11.13;;;7.87;;
2021;SDS011;1015;49.756;6.994;2022-12-07T10:56:36;11.90;;;7.53;;
2021;SDS011;1015;49.756;6.994;2022-12-07T10:59:23;13.23;;;7.60;;
2021;SDS011;1015;49.756;6.994;2022-12-07T11:05:18;11.00;;;7.33;;
2021;SDS011;1015;49.756;6.994;2022-12-07T11:07:56;11.37;;;7.23;;
2021;SDS011;1015;49.756;6.994;2022-12-07T11:10:33;12.30;;;7.60;;
2021;SDS011;1015;49.756;6.994;2022-12-07T11:13:14;8.50;;;6.43;;
2021;SDS011;1015;49.756;6.994;2022-12-07T11:15:53;11.13;;;7.00;;
2021;SDS011;1015;49.756;6.994;2022-12-07T11:18:29;10.00;;;6.90;;
2021;SDS011;1015;49.756;6.994;2022-12-07T11:21:04;10.07;;;6.30;;
2021;SDS011;1015;49.756;6.994;2022-12-07T11:23:40;7.03;;;5.37;;
2021;SDS011;1015;49.756;6.994;2022-12-07T11:26:16;9.17;;;6.40;;
2021;SDS011;1015;49.756;6.994;2022-12-07T11:31:47;10.00;;;5.80;;
2021;SDS011;1015;49.756;6.994;2022-12-07T11:34:23;11.07;;;6.67;;
2021;SDS011;1015;49.756;6.994;2022-12-07T11:36:59;10.13;;;6.07;;
2021;SDS011;1015;49.756;6.994;2022-12-07T11:39:33;9.87;;;5.87;;
2021;SDS011;1015;49.756;6.994;2022-12-07T11:42:03;9.20;;;5.60;;
2021;SDS011;1015;49.756;6.994;2022-12-07T11:44:34;8.93;;;6.00;;
2021;SDS011;1015;49.756;6.994;2022-12-07T11:47:08;9.90;;;6.00;;
2021;SDS011;1015;49.756;6.994;2022-12-07T11:49:40;10.50;;;5.73;;
2021;SDS011;1015;49.756;6.994;2022-12-07T11:52:14;8.87;;;6.13;;
2021;SDS011;1015;49.756;6.994;2022-12-07T11:54:47;8.50;;;6.10;;
2021;SDS011;1015;49.756;6.994;2022-12-07T11:57:19;9.20;;;5.90;;
2021;SDS011;1015;49.756;6.994;2022-12-07T11:59:51;7.63;;;5.20;;
2021;SDS011;1015;49.756;6.994;2022-12-07T12:02:26;7.33;;;5.80;;
2021;SDS011;1015;49.756;6.994;2022-12-07T12:04:59;9.50;;;5.53;;
2021;SDS011;1015;49.756;6.994;2022-12-07T12:07:34;7.70;;;6.10;;
2021;SDS011;1015;49.756;6.994;2022-12-07T12:10:04;7.67;;;5.43;;
2021;SDS011;1015;49.756;6.994;2022-12-07T12:12:45;8.50;;;6.03;;
2021;SDS011;1015;49.756;6.994;2022-12-07T12:15:36;8.33;;;5.83;;
2021;SDS011;1015;49.756;6.994;2022-12-07T12:18:25;7.20;;;5.37;;
2021;SDS011;1015;49.756;6.994;2022-12-07T12:21:04;9.27;;;6.30;;
2021;SDS011;1015;49.756;6.994;2022-12-07T12:23:35;8.30;;;6.07;;
2021;SDS011;1015;49.756;6.994;2022-12-07T12:26:07;9.73;;;6.00;;
2021;SDS011;1015;49.756;6.994;2022-12-07T12:28:44;9.37;;;5.30;;
2021;SDS011;1015;49.756;6.994;2022-12-07T12:31:29;7.90;;;6.10;;
2021;SDS011;1015;49.756;6.994;2022-12-07T12:34:03;9.10;;;5.73;;
2021;SDS011;1015;49.756;6.994;2022-12-07T12:36:58;8.73;;;5.77;;
2021;SDS011;1015;49.756;6.994;2022-12-07T12:39:25;9.37;;;6.90;;
2021;SDS011;1015;49.756;6.994;2022-12-07T12:41:53;8.63;;;6.20;;
2021;SDS011;1015;49.756;6.994;2022-12-07T12:44:41;10.10;;;6.47;;
2021;SDS011;1015;49.756;6.994;2022-12-07T12:47:39;11.40;;;5.73;;
2021;SDS011;1015;49.756;6.994;2022-12-07T12:50:24;8.27;;;5.20;;
2021;SDS011;1015;49.756;6.994;2022-12-07T12:56:02;9.20;;;6.33;;
2021;SDS011;1015;49.756;6.994;2022-12-07T12:58:43;10.60;;;6.00;;
2021;SDS011;1015;49.756;6.994;2022-12-07T13:04:28;7.23;;;5.30;;
2021;SDS011;1015;49.756;6.994;2022-12-07T13:07:47;8.70;;;5.70;;
2021;SDS011;1015;49.756;6.994;2022-12-07T13:10:25;7.20;;;5.00;;
2021;SDS011;1015;49.756;6.994;2022-12-07T13:25:31;7.90;;;5.27;;
2021;SDS011;1015;49.756;6.994;2022-12-07T13:28:08;11.97;;;6.23;;
2021;SDS011;1015;49.756;6.994;2022-12-07T13:30:45;6.97;;;5.10;;
2021;SDS011;1015;49.756;6.994;2022-12-07T13:33:16;6.67;;;5.10;;
2021;SDS011;1015;49.756;6.994;2022-12-07T13:35:45;9.33;;;5.67;;
2021;SDS011;1015;49.756;6.994;2022-12-07T13:38:17;8.10;;;5.10;;
2021;SDS011;1015;49.756;6.994;2022-12-07T13:41:04;9.43;;;5.40;;
2021;SDS011;1015;49.756;6.994;2022-12-07T13:43:42;8.80;;;5.83;;
2021;SDS011;1015;49.756;6.994;2022-12-07T13:46:14;10.60;;;5.67;;
2021;SDS011;1015;49.756;6.994;2022-12-07T13:48:44;10.20;;;5.40;;
2021;SDS011;1015;49.756;6.994;2022-12-07T13:51:20;6.70;;;4.93;;
2021;SDS011;1015;49.756;6.994;2022-12-07T13:53:49;8.97;;;5.10;;
2021;SDS011;1015;49.756;6.994;2022-12-07T13:56:22;9.70;;;5.47;;
2021;SDS011;1015;49.756;6.994;2022-12-07T13:58:54;9.73;;;6.07;;
2021;SDS011;1015;49.756;6.994;2022-12-07T14:01:21;10.20;;;5.87;;
2021;SDS011;1015;49.756;6.994;2022-12-07T14:03:48;9.90;;;5.53;;
2021;SDS011;1015;49.756;6.994;2022-12-07T14:06:17;9.73;;;5.90;;
2021;SDS011;1015;49.756;6.994;2022-12-07T14:09:07;6.30;;;4.90;;
2021;SDS011;1015;49.756;6.994;2022-12-07T14:11:36;8.40;;;5.03;;
2021;SDS011;1015;49.756;6.994;2022-12-07T14:14:04;9.40;;;5.37;;
2021;SDS011;1015;49.756;6.994;2022-12-07T14:16:32;11.10;;;5.80;;
2021;SDS011;1015;49.756;6.994;2022-12-07T14:19:01;8.27;;;5.20;;
2021;SDS011;1015;49.756;6.994;2022-12-07T14:21:30;8.07;;;5.20;;
2021;SDS011;1015;49.756;6.994;2022-12-07T14:26:48;7.90;;;5.60;;
2021;SDS011;1015;49.756;6.994;2022-12-07T14:29:20;7.93;;;4.97;;
2021;SDS011;1015;49.756;6.994;2022-12-07T14:31:57;7.13;;;4.63;;
2021;SDS011;1015;49.756;6.994;2022-12-07T14:34:39;11.23;;;5.40;;
2021;SDS011;1015;49.756;6.994;2022-12-07T14:37:07;10.30;;;5.90;;
2021;SDS011;1015;49.756;6.994;2022-12-07T14:39:35;9.60;;;5.37;;
2021;SDS011;1015;49.756;6.994;2022-12-07T14:42:04;11.90;;;5.93;;
2021;SDS011;1015;49.756;6.994;2022-12-07T14:44:31;8.43;;;5.43;;
2021;SDS011;1015;49.756;6.994;2022-12-07T14:46:58;7.87;;;4.83;;
2021;SDS011;1015;49.756;6.994;2022-12-07T14:49:25;9.53;;;4.80;;
2021;SDS011;1015;49.756;6.994;2022-12-07T14:51:52;10.10;;;4.90;;
2021;SDS011;1015;49.756;6.994;2022-12-07T14:54:20;9.17;;;5.20;;
2021;SDS011;1015;49.756;6.994;2022-12-07T14:56:48;7.37;;;4.97;;
2021;SDS011;1015;49.756;6.994;2022-12-07T14:59:17;8.27;;;4.80;;
2021;SDS011;1015;49.756;6.994;2022-12-07T15:01:45;9.17;;;5.07;;
2021;SDS011;1015;49.756;6.994;2022-12-07T15:04:12;6.30;;;4.30;;
2021;SDS011;1015;49.756;6.994;2022-12-07T15:06:39;7.93;;;3.93;;
2021;SDS011;1015;49.756;6.994;2022-12-07T15:09:08;7.43;;;4.43;;
2021;SDS011;1015;49.756;6.994;2022-12-07T15:11:36;6.63;;;4.27;;
2021;SDS011;1015;49.756;6.994;2022-12-07T15:14:04;9.20;;;4.30;;
2021;SDS011;1015;49.756;6.994;2022-12-07T15:16:40;8.50;;;4.67;;
2021;SDS011;1015;49.756;6.994;2022-12-07T15:19:12;7.20;;;3.97;;
2021;SDS011;1015;49.756;6.994;2022-12-07T15:21:43;7.03;;;3.60;;
2021;SDS011;1015;49.756;6.994;2022-12-07T15:24:10;5.73;;;3.97;;
2021;SDS011;1015;49.756;6.994;2022-12-07T15:26:38;6.17;;;4.10;;
2021;SDS011;1015;49.756;6.994;2022-12-07T15:29:06;7.50;;;4.30;;
2021;SDS011;1015;49.756;6.994;2022-12-07T15:31:34;4.20;;;3.53;;
2021;SDS011;1015;49.756;6.994;2022-12-07T15:34:02;7.30;;;4.50;;
2021;SDS011;1015;49.756;6.994;2022-12-07T15:36:30;5.90;;;3.80;;
2021;SDS011;1015;49.756;6.994;2022-12-07T15:38:58;6.40;;;3.50;;
2021;SDS011;1015;49.756;6.994;2022-12-07T15:41:25;8.30;;;3.90;;
2021;SDS011;1015;49.756;6.994;2022-12-07T15:43:52;5.50;;;3.47;;
2021;SDS011;1015;49.756;6.994;2022-12-07T15:46:38;6.30;;;3.77;;
2021;SDS011;1015;49.756;6.994;2022-12-07T15:49:08;5.27;;;3.63;;
2021;SDS011;1015;49.756;6.994;2022-12-07T15:51:39;7.77;;;3.90;;
2021;SDS011;1015;49.756;6.994;2022-12-07T15:54:07;5.57;;;4.03;;